createdAt,value
2019-02-21T00:01:58.544Z,33.53
2019-02-21T00:03:59.385Z,34.77
2019-02-21T00:06:00.233Z,36.13
2019-02-21T00:08:01.060Z,37.13
2019-02-21T00:10:01.918Z,30.10
2019-02-21T00:12:02.765Z,32.50
2019-02-21T00:14:03.620Z,30.53
2019-02-21T00:16:04.658Z,31.50
2019-02-21T00:18:05.481Z,30.67
2019-02-21T00:20:06.340Z,34.17
2019-02-21T00:22:07.476Z,34.10
2019-02-21T00:24:08.765Z,33.63
2019-02-21T00:26:09.605Z,31.57
2019-02-21T00:28:10.468Z,31.40
2019-02-21T00:30:11.320Z,32.63
2019-02-21T00:32:12.172Z,29.53
2019-02-21T00:34:13.402Z,31.93
2019-02-21T00:36:14.241Z,33.00
2019-02-21T00:38:15.073Z,28.83
2019-02-21T00:40:15.924Z,27.23
2019-02-21T00:42:16.780Z,25.30
2019-02-21T00:44:17.629Z,25.63
2019-02-21T00:46:18.481Z,24.10
2019-02-21T00:48:19.312Z,27.80
2019-02-21T00:50:20.438Z,29.13
2019-02-21T00:52:21.294Z,24.17
2019-02-21T00:54:22.412Z,27.60
2019-02-21T00:56:23.563Z,28.77
2019-02-21T00:58:24.719Z,26.10
2019-02-21T01:00:25.563Z,26.67
2019-02-21T01:02:26.403Z,25.13
2019-02-21T01:04:27.240Z,26.33
2019-02-21T01:06:28.076Z,26.97
2019-02-21T01:08:28.925Z,24.47
2019-02-21T01:10:29.782Z,27.63
2019-02-21T01:12:30.632Z,27.13
2019-02-21T01:14:31.785Z,28.77
2019-02-21T01:16:32.725Z,29.93
2019-02-21T01:18:33.573Z,26.20
2019-02-21T01:20:34.672Z,28.57
2019-02-21T01:22:35.528Z,29.23
2019-02-21T01:24:36.397Z,32.87
2019-02-21T01:26:37.580Z,31.50
2019-02-21T01:28:38.429Z,30.03
2019-02-21T01:30:39.255Z,31.73
2019-02-21T01:32:40.093Z,30.27
2019-02-21T01:34:40.932Z,28.63
2019-02-21T01:36:41.779Z,29.43
2019-02-21T01:38:42.616Z,27.10
2019-02-21T01:40:43.572Z,28.20
2019-02-21T01:42:44.414Z,27.30
2019-02-21T01:44:45.229Z,30.73
2019-02-21T01:46:46.073Z,34.23
2019-02-21T01:48:46.908Z,27.97
2019-02-21T01:50:47.821Z,27.17
2019-02-21T01:52:48.813Z,32.43
2019-02-21T01:54:49.668Z,27.97
2019-02-21T01:56:50.517Z,30.23
2019-02-21T01:58:51.353Z,31.90
2019-02-21T02:00:52.181Z,29.87
2019-02-21T02:02:53.025Z,27.93
2019-02-21T02:04:53.872Z,29.60
2019-02-21T02:06:54.708Z,30.50
2019-02-21T02:08:55.544Z,30.10
2019-02-21T02:10:56.629Z,29.53
2019-02-21T02:12:57.789Z,31.83
2019-02-21T02:14:58.621Z,30.63
2019-02-21T02:16:59.473Z,28.30
2019-02-21T02:19:00.314Z,30.93
2019-02-21T02:21:01.152Z,28.93
2019-02-21T02:23:02.017Z,29.23
2019-02-21T02:25:02.861Z,30.20
2019-02-21T02:27:03.693Z,30.83
2019-02-21T02:29:04.549Z,28.83
2019-02-21T02:31:05.427Z,29.13
2019-02-21T02:33:06.341Z,36.67
2019-02-21T02:35:07.185Z,37.03
2019-02-21T02:37:08.289Z,31.23
2019-02-21T02:39:09.333Z,34.00
2019-02-21T02:41:10.277Z,32.30
2019-02-21T02:43:11.204Z,32.07
2019-02-21T02:45:12.164Z,33.67
2019-02-21T02:47:13.276Z,30.50
2019-02-21T02:49:14.140Z,29.73
2019-02-21T02:51:14.977Z,34.23
2019-02-21T02:53:15.806Z,31.97
2019-02-21T02:55:16.657Z,32.73
2019-02-21T02:57:17.487Z,32.53
2019-02-21T02:59:18.325Z,31.07
2019-02-21T03:01:19.195Z,27.67
2019-02-21T03:03:20.013Z,29.67
2019-02-21T03:05:20.865Z,30.77
2019-02-21T03:07:21.695Z,31.03
2019-02-21T03:09:22.524Z,28.47
2019-02-21T03:11:23.369Z,28.53
2019-02-21T03:13:24.304Z,30.30
2019-02-21T03:15:25.148Z,31.57
2019-02-21T03:17:26.009Z,27.87
2019-02-21T03:19:26.839Z,30.13
2019-02-21T03:21:27.673Z,30.43
2019-02-21T03:23:28.522Z,28.97
2019-02-21T03:25:29.401Z,33.60
2019-02-21T03:27:30.270Z,30.43
2019-02-21T03:29:31.213Z,36.73
2019-02-21T03:31:32.305Z,31.03
2019-02-21T03:33:33.321Z,36.13
2019-02-21T03:35:34.245Z,31.73
2019-02-21T03:37:35.485Z,35.00
2019-02-21T03:39:36.305Z,32.70
2019-02-21T03:41:37.140Z,34.30
2019-02-21T03:43:37.985Z,34.13
2019-02-21T03:45:38.825Z,32.63
2019-02-21T03:47:39.914Z,36.30
2019-02-21T03:49:40.753Z,31.90
2019-02-21T03:51:41.608Z,35.60
2019-02-21T03:53:42.436Z,31.87
2019-02-21T03:55:43.269Z,36.20
2019-02-21T03:57:44.111Z,31.93
2019-02-21T03:59:44.964Z,33.13
2019-02-21T04:01:45.802Z,35.73
2019-02-21T04:03:46.747Z,31.53
2019-02-21T04:05:47.597Z,36.60
2019-02-21T04:07:48.457Z,34.87
2019-02-21T04:09:49.290Z,34.80
2019-02-21T04:11:50.119Z,34.80
2019-02-21T04:13:50.969Z,34.17
2019-02-21T04:15:51.905Z,33.40
2019-02-21T04:17:52.854Z,40.20
2019-02-21T04:19:53.693Z,38.90
2019-02-21T04:21:54.664Z,37.43
2019-02-21T04:23:55.608Z,37.50
2019-02-21T04:25:56.445Z,35.47
2019-02-21T04:27:57.268Z,33.00
2019-02-21T04:29:58.125Z,34.87
2019-02-21T04:31:58.971Z,34.47
2019-02-21T04:33:59.773Z,33.10
2019-02-21T04:36:00.616Z,32.13
2019-02-21T04:38:01.473Z,37.93
2019-02-21T04:40:02.317Z,34.27
2019-02-21T04:42:03.130Z,35.30
2019-02-21T04:44:04.241Z,32.80
2019-02-21T04:46:05.233Z,31.43
2019-02-21T04:48:06.072Z,34.30
2019-02-21T04:50:06.912Z,33.43
2019-02-21T04:52:07.745Z,32.70
2019-02-21T04:54:08.598Z,31.30
2019-02-21T04:56:09.428Z,34.40
2019-02-21T04:58:10.610Z,34.50
2019-02-21T05:00:11.469Z,34.17
2019-02-21T05:02:12.302Z,33.90
2019-02-21T05:04:13.128Z,37.60
2019-02-21T05:06:13.984Z,33.73
2019-02-21T05:08:14.820Z,36.07
2019-02-21T05:10:15.956Z,37.87
2019-02-21T05:12:16.808Z,35.27
2019-02-21T05:14:17.645Z,35.67
2019-02-21T05:16:18.504Z,33.73
2019-02-21T05:18:19.349Z,34.67
2019-02-21T05:20:20.162Z,34.33
2019-02-21T05:22:21.341Z,36.07
2019-02-21T05:24:22.178Z,39.27
2019-02-21T05:26:28.784Z,35.57
2019-02-21T05:28:30.928Z,35.20
2019-02-21T05:30:31.878Z,35.57
2019-02-21T05:32:43.537Z,34.03
2019-02-21T05:35:13.184Z,34.90
2019-02-21T05:37:33.664Z,32.93
2019-02-21T05:39:48.694Z,38.47
2019-02-21T05:42:04.841Z,40.13
2019-02-21T05:44:33.590Z,33.97
2019-02-21T05:46:45.521Z,36.10
2019-02-21T05:49:12.273Z,35.23
2019-02-21T05:51:21.533Z,37.53
2019-02-21T05:53:28.365Z,35.57
2019-02-21T05:56:00.899Z,38.37
2019-02-21T05:58:12.918Z,34.70
2019-02-21T06:00:32.480Z,35.40
2019-02-21T06:02:53.437Z,35.50
2019-02-21T06:05:29.638Z,31.03
2019-02-21T06:07:49.754Z,35.37
2019-02-21T06:10:03.375Z,35.50
2019-02-21T06:12:15.804Z,37.17
2019-02-21T06:14:36.171Z,36.23
2019-02-21T06:16:54.442Z,39.23
2019-02-21T06:19:04.580Z,36.87
2019-02-21T06:21:24.959Z,38.20
2019-02-21T06:23:39.509Z,37.87
2019-02-21T06:25:51.907Z,38.13
2019-02-21T06:28:08.385Z,39.27
2019-02-21T06:30:16.621Z,37.37
2019-02-21T06:32:17.466Z,40.17
2019-02-21T06:34:18.477Z,36.83
2019-02-21T06:36:19.884Z,39.93
2019-02-21T06:38:20.805Z,35.97
2019-02-21T06:40:21.632Z,35.80
2019-02-21T06:42:22.470Z,36.70
2019-02-21T06:44:23.334Z,38.37
2019-02-21T06:46:24.154Z,36.07
2019-02-21T06:48:24.980Z,38.20
2019-02-21T06:50:27.061Z,34.80
2019-02-21T06:52:28.177Z,37.47
2019-02-21T06:54:29.271Z,34.70
2019-02-21T06:56:30.116Z,36.37
2019-02-21T06:58:30.966Z,36.93
2019-02-21T07:00:32.144Z,37.00
2019-02-21T07:02:33.260Z,38.57
2019-02-21T07:04:34.096Z,42.00
2019-02-21T07:06:34.956Z,37.77
2019-02-21T07:08:35.797Z,35.07
2019-02-21T07:10:36.649Z,37.57
2019-02-21T07:12:37.494Z,41.70
2019-02-21T07:14:38.334Z,38.90
2019-02-21T07:16:39.213Z,37.43
2019-02-21T07:18:40.816Z,41.27
2019-02-21T07:20:41.894Z,35.40
2019-02-21T07:22:42.821Z,38.47
2019-02-21T07:24:45.474Z,39.13
2019-02-21T07:26:46.317Z,37.77
2019-02-21T07:28:47.160Z,38.67
2019-02-21T07:30:49.376Z,36.77
2019-02-21T07:32:50.208Z,36.73
2019-02-21T07:34:51.061Z,38.03
2019-02-21T07:36:51.896Z,45.77
2019-02-21T07:39:03.538Z,41.77
2019-02-21T07:40:55.516Z,38.20
2019-02-21T07:42:58.632Z,38.10
2019-02-21T07:44:59.786Z,39.13
2019-02-21T07:47:00.764Z,39.30
2019-02-21T07:49:01.945Z,40.37
2019-02-21T07:51:02.823Z,35.93
2019-02-21T07:53:03.736Z,47.20
2019-02-21T07:55:04.569Z,42.53
2019-02-21T07:57:05.413Z,41.10
2019-02-21T07:59:06.254Z,38.60
2019-02-21T08:01:07.101Z,43.43
2019-02-21T08:03:09.245Z,44.47
2019-02-21T08:05:10.289Z,42.57
2019-02-21T08:07:11.138Z,43.90
2019-02-21T08:09:11.974Z,36.93
2019-02-21T08:11:12.841Z,38.63
2019-02-21T08:13:13.761Z,40.57
2019-02-21T08:15:15.043Z,38.73
2019-02-21T08:17:16.364Z,41.63
2019-02-21T08:19:17.340Z,36.90
2019-02-21T08:21:18.282Z,36.13
2019-02-21T08:23:19.244Z,37.90
2019-02-21T08:25:20.266Z,37.77
2019-02-21T08:27:21.129Z,37.00
2019-02-21T08:29:21.961Z,36.97
2019-02-21T08:31:23.216Z,38.63
2019-02-21T08:33:42.281Z,37.03
2019-02-21T08:35:43.437Z,35.17
2019-02-21T08:37:44.288Z,40.20
2019-02-21T08:39:45.134Z,36.87
2019-02-21T08:41:45.989Z,37.03
2019-02-21T08:43:47.176Z,37.80
2019-02-21T08:45:48.041Z,35.43
2019-02-21T08:47:48.965Z,35.90
2019-02-21T08:49:49.793Z,36.03
2019-02-21T08:51:50.657Z,33.53
2019-02-21T08:53:51.481Z,35.13
2019-02-21T08:55:52.309Z,35.53
2019-02-21T08:57:53.166Z,34.30
2019-02-21T08:59:54.002Z,35.57
2019-02-21T09:01:54.858Z,33.40
2019-02-21T09:03:55.803Z,34.27
2019-02-21T09:05:56.756Z,34.37
2019-02-21T09:07:57.597Z,32.83
2019-02-21T09:09:58.429Z,35.10
2019-02-21T09:11:59.583Z,32.70
2019-02-21T09:14:00.960Z,37.97
2019-02-21T09:16:01.805Z,39.77
2019-02-21T09:18:02.660Z,39.97
2019-02-21T09:20:03.765Z,38.83
2019-02-21T09:22:04.626Z,35.13
2019-02-21T09:24:05.869Z,35.20
2019-02-21T09:26:06.714Z,35.57
2019-02-21T09:28:07.545Z,33.40
2019-02-21T09:30:08.406Z,34.10
2019-02-21T09:32:09.345Z,31.70
2019-02-21T09:34:20.640Z,33.80
2019-02-21T09:36:12.943Z,31.63
2019-02-21T09:38:13.795Z,30.77
2019-02-21T09:40:14.629Z,29.97
2019-02-21T09:42:15.480Z,30.90
2019-02-21T09:44:18.123Z,30.63
2019-02-21T09:46:19.082Z,29.10
2019-02-21T09:48:20.207Z,33.00
2019-02-21T09:50:21.037Z,29.57
2019-02-21T09:52:22.182Z,31.40
2019-02-21T09:54:23.029Z,29.30
2019-02-21T09:56:30.273Z,27.57
2019-02-21T09:58:26.628Z,27.40
2019-02-21T10:00:28.071Z,28.27
2019-02-21T10:02:28.932Z,28.73
2019-02-21T10:04:32.459Z,29.60
2019-02-21T10:06:32.531Z,28.90
2019-02-21T10:08:33.367Z,29.13
2019-02-21T10:10:34.220Z,28.03
2019-02-21T10:12:35.064Z,27.13
2019-02-21T10:14:35.900Z,26.43
2019-02-21T10:16:37.085Z,27.20
2019-02-21T10:18:37.913Z,28.93
2019-02-21T10:20:38.773Z,24.70
2019-02-21T10:22:39.693Z,25.40
2019-02-21T10:24:40.656Z,27.00
2019-02-21T10:26:41.769Z,27.47
2019-02-21T10:28:45.049Z,25.97
2019-02-21T10:30:45.387Z,26.83
2019-02-21T10:32:46.229Z,26.90
2019-02-21T10:34:47.733Z,27.93
2019-02-21T10:36:48.580Z,29.83
2019-02-21T10:38:49.427Z,26.37
2019-02-21T10:40:50.265Z,22.77
2019-02-21T10:42:51.425Z,29.13
2019-02-21T10:44:52.264Z,24.07
2019-02-21T10:46:53.182Z,26.17
2019-02-21T10:48:54.054Z,22.53
2019-02-21T10:50:54.893Z,24.77
2019-02-21T10:52:55.767Z,22.80
2019-02-21T10:54:56.764Z,24.23
2019-02-21T10:56:57.779Z,21.03
2019-02-21T10:58:58.635Z,20.73
2019-02-21T11:00:59.525Z,21.63
2019-02-21T11:03:00.406Z,24.10
2019-02-21T11:05:01.266Z,18.90
2019-02-21T11:07:02.373Z,25.07
2019-02-21T11:09:04.153Z,20.20
2019-02-21T11:11:04.992Z,19.80
2019-02-21T11:13:05.841Z,19.87
2019-02-21T11:15:06.692Z,27.10
2019-02-21T11:17:07.524Z,21.27
2019-02-21T11:19:08.661Z,21.10
2019-02-21T11:21:09.527Z,20.43
2019-02-21T11:23:10.376Z,22.67
2019-02-21T11:25:11.572Z,24.63
2019-02-21T11:27:12.414Z,22.90
2019-02-21T11:29:13.248Z,19.67
2019-02-21T11:31:14.129Z,21.47
2019-02-21T11:33:15.303Z,20.47
2019-02-21T11:35:16.145Z,19.90
2019-02-21T11:37:17.281Z,20.07
2019-02-21T11:39:18.121Z,24.17
2019-02-21T11:41:18.989Z,19.53
2019-02-21T11:43:19.833Z,18.73
2019-02-21T11:45:20.669Z,19.87
2019-02-21T11:47:21.850Z,19.80
2019-02-21T11:49:22.681Z,17.27
2019-02-21T11:51:23.513Z,19.80
2019-02-21T11:53:24.368Z,16.73
2019-02-21T11:55:25.206Z,19.27
2019-02-21T11:57:26.049Z,23.20
2019-02-21T11:59:26.886Z,17.40
2019-02-21T12:01:27.730Z,20.87
2019-02-21T12:03:28.931Z,19.93
2019-02-21T12:05:31.918Z,18.53
2019-02-21T12:07:32.549Z,21.50
2019-02-21T12:09:33.438Z,18.30
2019-02-21T12:11:34.291Z,19.07
2019-02-21T12:13:35.448Z,18.17
2019-02-21T12:15:36.297Z,21.13
2019-02-21T12:17:37.145Z,23.83
2019-02-21T12:19:38.357Z,17.97
2019-02-21T12:21:39.192Z,19.47
2019-02-21T12:23:40.056Z,18.10
2019-02-21T12:25:40.872Z,18.77
2019-02-21T12:27:41.968Z,17.03
2019-02-21T12:29:43.124Z,17.53
2019-02-21T12:31:43.984Z,20.00
2019-02-21T12:33:44.812Z,15.53
2019-02-21T12:35:45.918Z,16.93
2019-02-21T12:37:46.777Z,19.50
2019-02-21T12:39:47.896Z,20.17
2019-02-21T12:41:48.769Z,20.90
2019-02-21T12:43:49.601Z,19.57
2019-02-21T12:45:52.644Z,20.07
2019-02-21T12:47:54.218Z,17.10
2019-02-21T12:49:55.590Z,20.93
2019-02-21T12:51:57.460Z,19.30
2019-02-21T12:53:58.549Z,19.37
2019-02-21T12:55:59.400Z,23.77
2019-02-21T12:58:00.238Z,15.00
2019-02-21T13:00:01.108Z,17.77
2019-02-21T13:02:02.237Z,17.13
2019-02-21T13:04:03.099Z,18.20
2019-02-21T13:06:03.949Z,16.33
2019-02-21T13:08:04.780Z,15.43
2019-02-21T13:10:05.632Z,17.93
2019-02-21T13:12:06.458Z,16.87
2019-02-21T13:14:07.540Z,20.73
2019-02-21T13:16:08.417Z,17.30
2019-02-21T13:18:15.902Z,15.90
2019-02-21T13:20:12.059Z,21.10
2019-02-21T13:22:13.189Z,18.27
2019-02-21T13:24:14.026Z,21.33
2019-02-21T13:26:15.181Z,21.50
2019-02-21T13:28:16.020Z,15.93
2019-02-21T13:30:16.856Z,19.17
2019-02-21T13:32:17.741Z,20.83
2019-02-21T13:34:18.607Z,18.57
2019-02-21T13:36:19.509Z,18.37
2019-02-21T13:38:20.361Z,21.17
2019-02-21T13:40:21.543Z,18.03
2019-02-21T13:42:22.443Z,22.70
2019-02-21T13:44:23.562Z,22.27
2019-02-21T13:46:24.420Z,22.07
2019-02-21T13:48:25.249Z,22.03
2019-02-21T13:50:26.093Z,20.67
2019-02-21T13:52:27.226Z,19.53
2019-02-21T13:54:28.085Z,21.10
2019-02-21T13:56:28.945Z,19.83
2019-02-21T13:58:29.764Z,23.17
2019-02-21T14:00:30.620Z,24.07
2019-02-21T14:02:31.568Z,19.37
2019-02-21T14:04:32.398Z,20.40
2019-02-21T14:06:33.253Z,16.77
2019-02-21T14:08:34.072Z,22.10
2019-02-21T14:10:34.900Z,18.80
2019-02-21T14:12:35.744Z,20.63
2019-02-21T14:14:36.601Z,19.43
2019-02-21T14:16:46.194Z,17.07
2019-02-21T14:18:40.197Z,19.90
2019-02-21T14:20:45.486Z,19.23
2019-02-21T14:22:43.824Z,21.50
2019-02-21T14:24:44.669Z,22.93
2019-02-21T14:26:45.800Z,20.07
2019-02-21T14:28:46.646Z,19.27
2019-02-21T14:30:47.480Z,23.57
2019-02-21T14:32:48.332Z,24.97
2019-02-21T14:34:49.512Z,21.90
2019-02-21T14:36:50.348Z,23.87
2019-02-21T14:38:51.230Z,26.80
2019-02-21T14:40:52.348Z,24.47
2019-02-21T14:42:53.569Z,24.27
2019-02-21T14:44:54.428Z,25.67
2019-02-21T14:46:55.284Z,25.70
2019-02-21T14:48:56.124Z,27.87
2019-02-21T14:50:56.995Z,24.83
2019-02-21T14:52:57.814Z,25.20
2019-02-21T14:54:58.684Z,29.37
2019-02-21T14:56:59.583Z,25.23
2019-02-21T14:59:00.472Z,26.90
2019-02-21T15:01:01.329Z,24.57
2019-02-21T15:03:02.363Z,22.60
2019-02-21T15:05:03.497Z,24.10
2019-02-21T15:07:06.524Z,26.90
2019-02-21T15:09:07.105Z,27.10
2019-02-21T15:11:07.940Z,25.10
2019-02-21T15:13:09.146Z,24.27
2019-02-21T15:15:09.973Z,24.83
2019-02-21T15:17:11.361Z,28.50
2019-02-21T15:19:12.213Z,27.33
2019-02-21T15:21:13.080Z,24.50
2019-02-21T15:23:13.921Z,24.53
2019-02-21T15:25:14.749Z,26.33
2019-02-21T15:27:15.597Z,27.13
2019-02-21T15:29:16.431Z,25.10
2019-02-21T15:31:17.336Z,25.43
2019-02-21T15:33:18.213Z,26.17
2019-02-21T15:35:19.573Z,28.73
2019-02-21T15:37:20.973Z,25.53
2019-02-21T15:39:22.133Z,28.77
2019-02-21T15:41:22.968Z,30.80
2019-02-21T15:43:24.089Z,25.27
2019-02-21T15:45:24.967Z,28.97
2019-02-21T15:47:26.026Z,26.60
2019-02-21T15:49:26.944Z,24.27
2019-02-21T15:51:27.785Z,26.17
2019-02-21T15:53:28.661Z,25.40
2019-02-21T15:55:32.039Z,27.33
2019-02-21T15:57:32.261Z,28.10
2019-02-21T15:59:33.093Z,26.43
2019-02-21T16:01:33.948Z,26.80
2019-02-21T16:03:34.783Z,25.83
2019-02-21T16:05:35.625Z,25.97
2019-02-21T16:07:36.476Z,26.60
2019-02-21T16:09:37.402Z,24.27
2019-02-21T16:11:38.229Z,28.63
2019-02-21T16:13:39.739Z,26.37
2019-02-21T16:15:41.316Z,30.37
2019-02-21T16:17:42.177Z,24.03
2019-02-21T16:19:43.016Z,26.50
2019-02-21T16:21:43.897Z,25.50
2019-02-21T16:23:44.733Z,28.53
2019-02-21T16:25:45.577Z,29.23
2019-02-21T16:27:46.433Z,22.50
2019-02-21T16:29:47.273Z,28.60
2019-02-21T16:31:48.104Z,28.83
2019-02-21T16:33:49.236Z,25.10
2019-02-21T16:35:50.079Z,26.93
2019-02-21T16:37:50.904Z,26.30
2019-02-21T16:39:51.744Z,26.57
2019-02-21T16:41:52.584Z,24.50
2019-02-21T16:43:53.441Z,25.53
2019-02-21T16:45:54.305Z,26.00
2019-02-21T16:47:55.566Z,24.23
2019-02-21T16:49:58.312Z,27.27
2019-02-21T16:51:59.792Z,21.03
2019-02-21T16:54:00.637Z,26.60
2019-02-21T16:56:01.491Z,26.77
2019-02-21T16:58:02.341Z,25.27
2019-02-21T17:00:03.188Z,33.57
2019-02-21T17:02:04.377Z,27.53
2019-02-21T17:04:05.213Z,34.73
2019-02-21T17:06:06.070Z,33.83
2019-02-21T17:08:06.909Z,18.77
2019-02-21T17:10:08.103Z,15.90
2019-02-21T17:12:08.969Z,22.87
2019-02-21T17:14:10.328Z,21.70
2019-02-21T17:16:11.201Z,24.07
2019-02-21T17:18:12.066Z,20.93
2019-02-21T17:20:12.924Z,20.17
2019-02-21T17:22:13.759Z,22.07
2019-02-21T17:24:14.697Z,23.33
2019-02-21T17:26:15.545Z,23.17
2019-02-21T17:28:16.419Z,25.17
2019-02-21T17:30:17.289Z,24.20
2019-02-21T17:32:18.229Z,23.13
2019-02-21T17:34:19.272Z,23.70
2019-02-21T17:36:20.285Z,25.37
2019-02-21T17:38:21.227Z,39.33
2019-02-21T17:40:22.178Z,28.40
2019-02-21T17:42:23.102Z,27.13
2019-02-21T17:44:24.132Z,34.77
2019-02-21T17:46:25.675Z,32.00
2019-02-21T17:48:26.538Z,30.17
2019-02-21T17:50:27.381Z,34.40
2019-02-21T17:52:28.241Z,32.87
2019-02-21T17:54:29.106Z,33.70
2019-02-21T17:56:29.948Z,48.20
2019-02-21T17:58:31.401Z,41.93
2019-02-21T18:00:34.823Z,45.67
2019-02-21T18:02:35.724Z,45.13
2019-02-21T18:04:36.584Z,45.43
2019-02-21T18:06:37.445Z,40.73
2019-02-21T18:08:38.264Z,45.93
2019-02-21T18:10:39.109Z,45.03
2019-02-21T18:12:39.952Z,42.07
2019-02-21T18:14:40.809Z,34.33
2019-02-21T18:16:41.660Z,41.53
2019-02-21T18:18:42.628Z,36.53
2019-02-21T18:20:43.559Z,41.40
2019-02-21T18:22:44.598Z,35.13
2019-02-21T18:24:45.513Z,36.53
2019-02-21T18:26:46.636Z,34.77
2019-02-21T18:28:47.497Z,37.37
2019-02-21T18:30:48.332Z,32.10
2019-02-21T18:32:49.620Z,39.97
2019-02-21T18:34:50.780Z,32.50
2019-02-21T18:36:51.633Z,31.53
2019-02-21T18:38:52.476Z,33.70
2019-02-21T18:40:54.589Z,34.83
2019-02-21T18:42:55.544Z,34.63
2019-02-21T18:44:56.400Z,33.87
2019-02-21T18:46:57.280Z,30.30
2019-02-21T18:48:58.194Z,33.73
2019-02-21T18:50:59.096Z,33.20
2019-02-21T18:53:00.035Z,29.47
2019-02-21T18:55:00.884Z,30.40
2019-02-21T18:57:02.001Z,30.13
2019-02-21T18:59:02.837Z,36.70
2019-02-21T19:01:03.976Z,32.10
2019-02-21T19:03:04.841Z,28.67
2019-02-21T19:05:05.692Z,32.40
2019-02-21T19:07:06.564Z,30.30
2019-02-21T19:09:07.392Z,29.13
2019-02-21T19:11:08.540Z,34.40
2019-02-21T19:13:09.485Z,39.00
2019-02-21T19:15:10.330Z,33.73
2019-02-21T19:17:11.226Z,33.30
2019-02-21T19:19:12.088Z,36.17
2019-02-21T19:21:12.919Z,38.27
2019-02-21T19:23:13.758Z,42.33
2019-02-21T19:25:15.198Z,43.80
2019-02-21T19:27:16.137Z,42.07
2019-02-21T19:29:16.994Z,42.90
2019-02-21T19:31:17.844Z,40.57
2019-02-21T19:33:18.681Z,40.50
2019-02-21T19:35:19.517Z,42.50
2019-02-21T19:37:20.368Z,46.23
2019-02-21T19:39:21.195Z,44.73
2019-02-21T19:41:22.037Z,43.67
2019-02-21T19:43:22.868Z,44.50
2019-02-21T19:45:24.037Z,42.20
2019-02-21T19:47:24.899Z,47.73
2019-02-21T19:49:25.750Z,43.00
2019-02-21T19:51:26.588Z,40.43
2019-02-21T19:53:27.451Z,41.60
2019-02-21T19:55:28.289Z,44.00
2019-02-21T19:57:29.149Z,42.13
2019-02-21T19:59:29.999Z,45.23
2019-02-21T20:01:30.821Z,40.07
2019-02-21T20:03:31.649Z,39.60
2019-02-21T20:05:32.497Z,38.07
2019-02-21T20:07:33.332Z,35.27
2019-02-21T20:09:34.169Z,34.30
2019-02-21T20:11:35.997Z,34.80
2019-02-21T20:13:37.088Z,30.27
2019-02-21T20:15:37.944Z,33.03
2019-02-21T20:17:38.808Z,29.77
2019-02-21T20:19:39.647Z,33.03
2019-02-21T20:21:40.498Z,33.10
2019-02-21T20:23:41.335Z,33.77
2019-02-21T20:25:42.191Z,32.27
2019-02-21T20:27:43.025Z,30.13
2019-02-21T20:29:43.890Z,31.40
2019-02-21T20:31:44.764Z,31.90
2019-02-21T20:33:45.598Z,39.17
2019-02-21T20:35:46.460Z,40.37
2019-02-21T20:37:47.388Z,42.33
2019-02-21T20:39:48.592Z,40.07
2019-02-21T20:41:49.453Z,45.37
2019-02-21T20:43:50.377Z,39.37
2019-02-21T20:45:53.365Z,38.73
2019-02-21T20:47:54.307Z,41.73
2019-02-21T20:49:55.155Z,39.37
2019-02-21T20:51:55.972Z,37.70
2019-02-21T20:53:56.828Z,36.70
2019-02-21T20:55:57.992Z,39.60
2019-02-21T20:57:58.841Z,39.00
2019-02-21T20:59:59.693Z,40.77
2019-02-21T21:02:00.525Z,39.03
2019-02-21T21:04:01.373Z,41.80
2019-02-21T21:06:02.204Z,39.97
2019-02-21T21:08:03.043Z,35.00
2019-02-21T21:10:05.331Z,40.93
2019-02-21T21:12:06.188Z,37.20
2019-02-21T21:14:07.048Z,36.10
2019-02-21T21:16:07.904Z,34.07
2019-02-21T21:18:09.145Z,38.73
2019-02-21T21:20:16.559Z,36.77
2019-02-21T21:22:12.776Z,35.63
2019-02-21T21:24:13.629Z,38.97
2019-02-21T21:26:14.489Z,34.50
2019-02-21T21:28:15.634Z,33.87
2019-02-21T21:30:16.484Z,31.87
2019-02-21T21:32:17.350Z,38.53
2019-02-21T21:34:18.172Z,31.77
2019-02-21T21:36:19.048Z,35.77
2019-02-21T21:38:24.302Z,36.10
2019-02-21T21:40:23.628Z,25.12
2019-02-21T21:42:24.589Z,30.07
2019-02-21T21:44:25.445Z,25.30
2019-02-21T21:46:26.444Z,21.00
2019-02-21T21:48:27.269Z,34.90
2019-02-21T21:50:28.229Z,34.50
2019-02-21T21:52:29.512Z,36.57
2019-02-21T21:54:30.354Z,34.07
2019-02-21T21:56:31.213Z,38.47
2019-02-21T21:58:32.142Z,33.83
2019-02-21T22:00:33.086Z,35.20
2019-02-21T22:02:34.011Z,35.00
2019-02-21T22:04:34.960Z,33.33
2019-02-21T22:06:35.889Z,36.53
2019-02-21T22:08:36.709Z,37.30
2019-02-21T22:10:37.544Z,34.60
2019-02-21T22:12:38.404Z,38.53
2019-02-21T22:14:39.254Z,39.57
2019-02-21T22:16:40.157Z,39.33
2019-02-21T22:18:41.026Z,35.57
2019-02-21T22:20:41.861Z,33.87
2019-02-21T22:22:43.065Z,33.43
2019-02-21T22:24:43.969Z,37.50
2019-02-21T22:26:44.796Z,34.60
2019-02-21T22:28:45.721Z,38.13
2019-02-21T22:30:46.574Z,37.00
2019-02-21T22:32:47.445Z,40.53
2019-02-21T22:34:48.370Z,38.97
2019-02-21T22:36:49.192Z,37.93
2019-02-21T22:38:50.060Z,33.20
2019-02-21T22:40:51.252Z,38.97
2019-02-21T22:42:52.110Z,35.13
2019-02-21T22:44:52.965Z,35.43
2019-02-21T22:46:53.798Z,37.30
2019-02-21T22:48:54.633Z,42.30
2019-02-21T22:50:55.497Z,37.47
2019-02-21T22:52:56.344Z,41.10
2019-02-21T22:54:58.499Z,38.97
2019-02-21T22:57:00.015Z,34.53
2019-02-21T22:59:00.855Z,37.80
2019-02-21T23:01:03.529Z,33.67
2019-02-21T23:03:04.492Z,36.00
2019-02-21T23:05:05.551Z,36.47
2019-02-21T23:07:06.433Z,32.83
2019-02-21T23:09:13.282Z,33.27
2019-02-21T23:11:14.319Z,35.83
2019-02-21T23:13:15.766Z,31.30
2019-02-21T23:15:16.605Z,33.53
2019-02-21T23:17:17.556Z,34.67
2019-02-21T23:19:18.469Z,32.57
2019-02-21T23:21:19.407Z,30.20
2019-02-21T23:23:20.249Z,25.60
2019-02-21T23:25:21.077Z,29.27
2019-02-21T23:27:21.929Z,29.17
2019-02-21T23:29:22.800Z,28.07
2019-02-21T23:31:23.627Z,32.60
2019-02-21T23:33:25.486Z,29.63
2019-02-21T23:35:26.640Z,39.83
2019-02-21T23:37:27.468Z,40.83
2019-02-21T23:39:37.999Z,42.37
2019-02-21T23:41:31.109Z,38.83
2019-02-21T23:43:31.932Z,37.90
2019-02-21T23:45:32.949Z,33.90
2019-02-21T23:47:33.832Z,40.13
2019-02-21T23:49:34.644Z,40.20
2019-02-21T23:51:35.496Z,35.30
2019-02-21T23:53:36.336Z,40.37
2019-02-21T23:55:37.197Z,35.43
2019-02-21T23:57:38.369Z,31.60
2019-02-21T23:59:39.205Z,29.40
